Time;durP1;ratioP1;P1;durP2;ratioP2;P2;SDS_P1;SDS_P2;PMS_P1;PMS_P2;Temp;Humidity;BMP_temperature;BMP_pressure;BME280_temperature;BME280_humidity;BME280_pressure;Samples;Min_cycle;Max_cycle;Signal;HPM_P1;HPM_P2
2024/02/01 00:03:23;;;;;;;2.30;1.10;;;21.20;40.00;;;;;;10463656;28;20498;-45
2024/02/01 00:08:24;;;;;;;1.42;0.98;;;21.10;39.90;;;;;;10459037;28;20418;-44
2024/02/01 00:13:26;;;;;;;1.88;1.10;;;21.10;39.90;;;;;;10464329;28;20045;-45
2024/02/01 00:18:29;;;;;;;1.45;1.10;;;21.10;39.90;;;;;;10454410;28;20047;-46
2024/02/01 00:23:30;;;;;;;1.65;1.00;;;21.00;39.90;;;;;;10460211;28;20041;-44
2024/02/01 00:28:32;;;;;;;1.35;0.95;;;21.00;40.10;;;;;;10460003;28;20503;-46
2024/02/01 00:33:35;;;;;;;1.55;0.90;;;21.00;40.10;;;;;;10468720;28;20082;-44
2024/02/01 00:38:36;;;;;;;1.10;1.00;;;20.90;40.10;;;;;;10457802;28;20059;-50
2024/02/01 00:43:38;;;;;;;1.65;1.10;;;20.90;40.20;;;;;;10451314;28;20079;-49
2024/02/01 00:48:41;;;;;;;1.40;1.20;;;20.90;40.20;;;;;;10460057;28;20148;-44
2024/02/01 00:53:43;;;;;;;1.65;0.98;;;20.80;40.30;;;;;;10455437;28;20044;-46
2024/02/01 00:58:44;;;;;;;2.25;1.20;;;20.70;40.30;;;;;;10456505;28;20545;-46
2024/02/01 01:03:47;;;;;;;1.92;1.00;;;20.70;40.30;;;;;;10458775;28;20045;-43
2024/02/01 01:08:49;;;;;;;1.55;1.00;;;20.70;40.40;;;;;;10462852;28;20037;-43
2024/02/01 01:13:51;;;;;;;0.85;0.82;;;20.60;40.40;;;;;;10459446;28;20049;-43
2024/02/01 01:18:54;;;;;;;1.10;0.88;;;20.60;40.50;;;;;;10452006;28;20051;-44
2024/02/01 01:23:56;;;;;;;1.38;1.10;;;20.50;40.60;;;;;;10452432;28;20045;-45
2024/02/01 01:28:57;;;;;;;1.55;1.00;;;20.40;40.60;;;;;;10459602;28;20409;-43
2024/02/01 01:34:00;;;;;;;1.65;1.20;;;20.30;40.70;;;;;;10452231;28;20098;-44
2024/02/01 01:39:02;;;;;;;1.08;0.80;;;20.40;40.70;;;;;;10454002;28;20045;-49
2024/02/01 01:44:05;;;;;;;1.70;0.93;;;20.40;40.70;;;;;;10453620;28;20053;-48
2024/02/01 01:49:08;;;;;;;1.50;1.02;;;20.40;40.90;;;;;;10458282;28;20041;-44
2024/02/01 01:54:10;;;;;;;1.20;0.90;;;20.30;40.80;;;;;;10450839;28;20072;-46
2024/02/01 01:59:11;;;;;;;1.17;0.90;;;20.20;40.90;;;;;;10447795;28;20113;-43
2024/02/01 02:04:15;;;;;;;1.33;0.80;;;20.20;40.90;;;;;;10454725;28;20159;-44
2024/02/01 02:09:16;;;;;;;1.52;0.90;;;20.20;41.10;;;;;;10454191;28;20052;-50
2024/02/01 02:14:18;;;;;;;1.30;0.80;;;20.20;41.00;;;;;;10451934;28;20517;-43
2024/02/01 02:19:21;;;;;;;1.23;0.80;;;20.10;41.10;;;;;;10457632;28;20044;-43
2024/02/01 02:24:24;;;;;;;1.40;0.80;;;20.10;41.10;;;;;;10457078;28;20057;-43
2024/02/01 02:29:26;;;;;;;1.55;0.88;;;20.10;41.30;;;;;;10460031;28;20045;-44
2024/02/01 02:34:27;;;;;;;1.10;0.90;;;20.00;41.20;;;;;;10451973;28;20036;-44
2024/02/01 02:39:30;;;;;;;0.85;0.70;;;20.00;41.20;;;;;;10444146;28;20141;-43
2024/02/01 02:44:32;;;;;;;0.93;0.80;;;20.00;41.30;;;;;;10456658;28;20045;-43
2024/02/01 02:49:34;;;;;;;1.20;0.80;;;19.90;41.40;;;;;;10454452;28;20514;-46
2024/02/01 02:54:37;;;;;;;0.75;0.75;;;19.90;41.40;;;;;;10458386;28;20041;-51
2024/02/01 02:59:38;;;;;;;0.80;0.63;;;19.90;41.30;;;;;;10455822;28;20057;-45
2024/02/01 03:04:40;;;;;;;1.55;0.80;;;19.80;41.50;;;;;;10456518;28;20037;-43
2024/02/01 03:09:43;;;;;;;1.65;0.80;;;19.90;42.10;;;;;;10451338;28;20518;-49
2024/02/01 03:14:45;;;;;;;0.85;0.77;;;19.70;41.60;;;;;;10444651;28;20048;-43
2024/02/01 03:19:50;;;;;;;1.05;0.63;;;19.80;41.50;;;;;;10456014;28;20048;-45
2024/02/01 03:24:59;;;;;;;1.20;0.88;;;19.70;41.60;;;;;;10448159;28;20143;-44
2024/02/01 03:30:03;;;;;;;0.70;0.60;;;19.80;41.70;;;;;;10458291;28;20068;-44
2024/02/01 03:35:05;;;;;;;1.55;0.70;;;19.70;41.70;;;;;;10464356;28;20048;-43
2024/02/01 03:40:13;;;;;;;1.05;0.60;;;19.60;41.80;;;;;;10469493;28;20045;-45
2024/02/01 03:45:14;;;;;;;1.00;0.63;;;19.60;41.90;;;;;;10463519;28;20515;-43
2024/02/01 03:50:16;;;;;;;0.77;0.77;;;19.60;41.90;;;;;;10455009;28;20133;-47
2024/02/01 03:55:19;;;;;;;0.68;0.60;;;19.50;41.90;;;;;;10450186;28;20136;-43
2024/02/01 04:00:28;;;;;;;2.03;0.70;;;19.60;42.00;;;;;;10461027;28;20047;-49
2024/02/01 04:05:30;;;;;;;1.00;0.63;;;19.60;42.00;;;;;;10458988;28;20040;-46
2024/02/01 04:10:39;;;;;;;0.80;0.60;;;20.30;40.90;;;;;;10459555;28;20067;-47
2024/02/01 04:15:42;;;;;;;0.50;0.50;;;20.40;41.20;;;;;;10458238;28;20052;-44
2024/02/01 04:20:44;;;;;;;1.75;0.73;;;20.70;41.30;;;;;;10466692;28;20044;-43
2024/02/01 04:25:47;;;;;;;1.33;0.70;;;21.00;40.90;;;;;;10462685;28;20156;-43
2024/02/01 04:30:51;;;;;;;0.95;0.68;;;21.20;40.70;;;;;;10451978;28;20045;-54
2024/02/01 04:35:52;;;;;;;1.38;0.75;;;21.10;41.20;;;;;;10451741;28;20051;-44
2024/02/01 04:40:55;;;;;;;0.70;0.50;;;21.30;40.90;;;;;;10459231;28;20502;-44
2024/02/01 04:45:57;;;;;;;1.10;0.70;;;21.40;40.90;;;;;;10458536;28;20116;-44
2024/02/01 04:50:58;;;;;;;0.77;0.70;;;21.50;40.90;;;;;;10460843;28;20128;-44
2024/02/01 04:56:02;;;;;;;0.80;0.60;;;21.70;40.60;;;;;;10464671;28;20068;-44
2024/02/01 05:01:09;;;;;;;0.60;0.60;;;22.10;40.50;;;;;;10462978;28;20064;-44
2024/02/01 05:06:11;;;;;;;1.13;0.63;;;22.10;39.80;;;;;;10454031;28;20044;-46
2024/02/01 05:11:14;;;;;;;1.58;0.60;;;22.20;39.80;;;;;;10447277;28;20065;-46
2024/02/01 05:16:16;;;;;;;1.00;0.70;;;22.10;39.80;;;;;;10457552;28;20036;-44
2024/02/01 05:21:18;;;;;;;1.25;0.90;;;21.90;40.20;;;;;;10462316;28;20067;-47
2024/02/01 05:26:21;;;;;;;1.02;0.77;;;22.10;40.10;;;;;;10454729;28;20052;-46
2024/02/01 05:31:22;;;;;;;1.20;0.82;;;22.40;39.60;;;;;;10459751;28;20036;-48
2024/02/01 05:36:24;;;;;;;1.40;0.85;;;22.40;39.60;;;;;;10454193;28;20503;-45
2024/02/01 05:41:27;;;;;;;1.40;0.80;;;22.10;40.30;;;;;;10457361;28;20527;-45
2024/02/01 05:46:28;;;;;;;1.27;0.80;;;22.20;40.30;;;;;;10448254;28;20049;-44
2024/02/01 05:51:31;;;;;;;2.60;0.70;;;22.60;39.70;;;;;;10455124;28;20124;-49
2024/02/01 05:56:34;;;;;;;2.95;0.77;;;22.50;39.80;;;;;;10461122;28;20574;-49
2024/02/01 06:01:35;;;;;;;1.83;0.80;;;22.40;40.40;;;;;;10457248;28;20047;-46
2024/02/01 06:06:38;;;;;;;3.17;1.00;;;22.20;41.30;;;;;;10455015;28;20499;-47
2024/02/01 06:11:41;;;;;;;4.03;0.88;;;22.20;41.50;;;;;;10463787;28;20045;-47
2024/02/01 06:16:43;;;;;;;2.03;1.05;;;22.20;41.50;;;;;;10446260;28;20521;-47
2024/02/01 06:21:45;;;;;;;1.55;0.80;;;22.30;41.40;;;;;;10453391;28;20048;-44
2024/02/01 06:26:48;;;;;;;2.03;0.95;;;22.40;41.20;;;;;;10447849;28;20045;-44
2024/02/01 06:31:49;;;;;;;3.67;1.20;;;22.20;41.20;;;;;;10453893;28;20047;-43
2024/02/01 06:36:58;;;;;;;6.63;1.10;;;21.90;41.80;;;;;;10454181;28;20102;-44
2024/02/01 06:42:12;;;;;;;7.40;1.60;;;22.00;41.80;;;;;;10454891;28;20077;-50
2024/02/01 06:47:23;;;;;;;12.30;2.00;;;22.10;42.10;;;;;;10453819;28;20057;-47
2024/02/01 06:52:34;;;;;;;14.93;2.28;;;22.10;43.70;;;;;;10456460;28;20037;-49
2024/02/01 06:57:47;;;;;;;22.30;2.78;;;22.10;44.90;;;;;;10455185;28;20045;-46
2024/02/01 07:03:01;;;;;;;29.48;6.53;;;22.10;45.40;;;;;;10452743;28;20143;-48
2024/02/01 07:08:12;;;;;;;50.08;10.10;;;22.00;45.90;;;;;;10460527;28;20059;-50
2024/02/01 07:13:34;;;;;;;29.50;6.50;;;21.80;44.60;;;;;;10459301;28;20037;-46
2024/02/01 07:18:43;;;;;;;23.17;5.40;;;21.40;42.50;;;;;;10458676;28;21028;-51
2024/02/01 07:23:56;;;;;;;21.90;4.57;;;21.20;41.50;;;;;;10467494;28;20526;-48
2024/02/01 08:01:00;;;;;;;11.32;3.33;;;20.30;38.90;;;;;;10466841;28;20450;-53
2024/02/01 08:11:20;;;;;;;13.00;3.60;;;20.20;38.80;;;;;;10459426;28;20036;-48
2024/02/01 08:16:24;;;;;;;15.80;3.60;;;20.10;38.60;;;;;;10448373;28;20052;-43
2024/02/01 08:21:26;;;;;;;13.23;3.28;;;20.10;38.60;;;;;;10456410;28;20140;-46
2024/02/01 08:26:37;;;;;;;15.48;3.40;;;20.10;38.60;;;;;;10459464;28;20132;-45
2024/02/01 08:31:40;;;;;;;14.93;3.47;;;19.90;38.60;;;;;;10460323;28;20129;-43
2024/02/01 08:36:43;;;;;;;15.82;3.63;;;19.80;38.70;;;;;;10458487;28;20041;-47
2024/02/01 08:41:45;;;;;;;16.33;3.80;;;19.90;38.70;;;;;;10467705;28;20041;-44
2024/02/01 08:46:50;;;;;;;14.82;3.40;;;19.90;38.40;;;;;;10458403;28;20076;-47
2024/02/01 08:51:51;;;;;;;15.23;4.00;;;19.80;38.70;;;;;;10456955;28;20052;-43
2024/02/01 08:56:53;;;;;;;17.25;3.45;;;19.80;38.60;;;;;;10452526;28;20437;-45
2024/02/01 09:01:57;;;;;;;17.33;4.00;;;19.70;38.70;;;;;;10463822;28;20041;-48
2024/02/01 09:06:59;;;;;;;15.68;3.95;;;19.70;38.60;;;;;;10460106;28;20092;-46
2024/02/01 09:12:00;;;;;;;14.02;3.58;;;19.70;38.70;;;;;;10457532;28;20131;-46
2024/02/01 09:17:04;;;;;;;18.75;4.53;;;19.70;38.90;;;;;;10461425;28;20481;-53
2024/02/01 09:22:05;;;;;;;16.00;3.85;;;19.70;39.00;;;;;;10456015;28;20499;-48
2024/02/01 09:27:07;;;;;;;18.23;4.60;;;19.70;38.90;;;;;;10453548;28;20048;-46
2024/02/01 09:32:10;;;;;;;16.27;3.80;;;19.70;39.00;;;;;;10449166;28;20052;-44
2024/02/01 09:37:12;;;;;;;18.13;4.25;;;19.80;38.90;;;;;;10454637;28;20132;-43
2024/02/01 09:42:22;;;;;;;17.20;4.50;;;19.80;39.20;;;;;;10450928;28;20047;-49
2024/02/01 09:47:25;;;;;;;18.52;4.38;;;19.80;39.20;;;;;;10458668;28;20048;-43
2024/02/01 09:52:27;;;;;;;15.90;4.05;;;19.80;39.10;;;;;;10459976;28;20820;-47
2024/02/01 09:57:29;;;;;;;16.65;4.55;;;19.90;39.10;;;;;;10457889;28;20054;-46
2024/02/01 10:02:32;;;;;;;14.68;3.47;;;20.10;39.70;;;;;;10449391;28;20139;-44
2024/02/01 10:07:36;;;;;;;16.17;4.63;;;20.40;39.50;;;;;;10449963;28;20068;-49
2024/02/01 10:12:38;;;;;;;20.50;4.30;;;20.70;40.90;;;;;;10449696;28;20133;-49
2024/02/01 10:17:46;;;;;;;13.98;4.10;;;20.50;43.20;;;;;;10462203;28;20135;-45
2024/02/01 10:22:48;;;;;;;15.82;4.00;;;20.50;43.00;;;;;;10457104;28;20055;-53
2024/02/01 10:27:54;;;;;;;17.67;4.10;;;20.40;42.40;;;;;;10455410;28;20114;-44
2024/02/01 10:32:57;;;;;;;19.77;4.00;;;20.40;42.00;;;;;;10459920;28;20049;-44
2024/02/01 10:38:01;;;;;;;13.88;4.40;;;20.50;41.10;;;;;;10446616;28;20123;-51
2024/02/01 10:43:02;;;;;;;14.75;4.05;;;20.50;40.50;;;;;;10466215;28;20127;-43
2024/02/01 10:48:09;;;;;;;15.57;3.65;;;20.50;40.10;;;;;;10460706;28;20456;-49
2024/02/01 10:53:11;;;;;;;14.32;3.65;;;20.50;39.60;;;;;;10461693;28;20095;-45
2024/02/01 10:58:13;;;;;;;14.20;3.60;;;20.50;39.30;;;;;;10468047;28;20051;-45
2024/02/01 11:03:19;;;;;;;18.27;4.00;;;20.50;38.80;;;;;;10466900;28;20052;-45
2024/02/01 11:08:20;;;;;;;14.27;3.78;;;20.50;38.80;;;;;;10463409;28;20051;-49
2024/02/01 11:13:28;;;;;;;14.15;3.58;;;20.60;38.60;;;;;;10461004;28;20502;-45
2024/02/01 11:18:30;;;;;;;13.57;3.08;;;20.70;38.20;;;;;;10460281;28;20110;-45
2024/02/01 11:23:38;;;;;;;17.45;3.72;;;20.60;38.10;;;;;;10461081;28;20127;-46
2024/02/01 11:28:40;;;;;;;12.18;3.75;;;20.90;37.80;;;;;;10460135;28;20124;-44
2024/02/01 11:33:43;;;;;;;9.55;2.97;;;21.10;38.00;;;;;;10465112;28;20051;-47
2024/02/01 11:38:49;;;;;;;11.63;3.30;;;21.10;38.10;;;;;;10460082;28;20111;-44
2024/02/01 11:43:52;;;;;;;11.60;3.30;;;21.00;38.70;;;;;;10465559;28;20914;-45
2024/02/01 11:48:55;;;;;;;10.43;2.90;;;20.90;39.20;;;;;;10460430;28;20453;-43
2024/02/01 11:53:57;;;;;;;9.65;2.63;;;20.80;39.30;;;;;;10443968;28;20124;-45
2024/02/01 11:58:58;;;;;;;12.05;3.40;;;21.00;39.40;;;;;;10462466;28;20041;-47
2024/02/01 12:04:01;;;;;;;11.23;3.33;;;21.10;39.50;;;;;;10463502;28;20051;-44
2024/02/01 12:09:05;;;;;;;10.77;2.78;;;21.00;39.80;;;;;;10461539;28;20422;-49
2024/02/01 12:14:11;;;;;;;7.75;2.80;;;21.00;39.90;;;;;;10463163;28;20041;-49
2024/02/01 12:19:14;;;;;;;9.25;2.90;;;21.00;40.10;;;;;;10462500;28;20076;-44
2024/02/01 12:24:18;;;;;;;9.02;2.38;;;21.20;40.00;;;;;;10461599;28;20044;-44
2024/02/01 12:29:19;;;;;;;8.55;2.40;;;21.10;40.10;;;;;;10459233;28;20407;-44
2024/02/01 12:34:23;;;;;;;6.55;2.53;;;21.20;40.20;;;;;;10450347;28;20077;-49
2024/02/01 12:39:25;;;;;;;13.88;3.10;;;21.10;40.40;;;;;;10462703;28;20041;-50
2024/02/01 12:44:27;;;;;;;7.32;2.40;;;21.10;40.50;;;;;;10462046;28;20046;-49
2024/02/01 12:49:30;;;;;;;6.53;2.45;;;21.20;40.50;;;;;;10464380;28;20051;-46
2024/02/01 12:54:33;;;;;;;8.20;2.45;;;21.20;40.50;;;;;;10457241;28;20469;-48
2024/02/01 12:59:36;;;;;;;7.20;2.35;;;21.20;40.50;;;;;;10461740;28;20159;-49
2024/02/01 13:04:39;;;;;;;7.95;2.30;;;21.20;40.70;;;;;;10470385;28;20075;-48
2024/02/01 13:09:43;;;;;;;6.47;2.20;;;21.10;40.90;;;;;;10448197;28;20443;-49
2024/02/01 13:14:44;;;;;;;6.93;2.10;;;21.20;40.90;;;;;;10458425;28;20051;-51
2024/02/01 13:19:47;;;;;;;4.70;1.95;;;21.20;40.80;;;;;;10463357;28;20044;-48
2024/02/01 13:24:49;;;;;;;5.25;2.05;;;21.20;40.90;;;;;;10460128;28;20059;-50
2024/02/01 13:29:51;;;;;;;6.97;2.05;;;21.30;40.90;;;;;;10457371;28;20143;-52
2024/02/01 13:34:54;;;;;;;5.85;2.00;;;21.30;40.90;;;;;;10456884;28;20686;-46
2024/02/01 13:39:55;;;;;;;5.95;1.95;;;21.40;40.90;;;;;;10456682;28;20048;-48
2024/02/01 13:44:57;;;;;;;6.72;2.15;;;21.70;40.20;;;;;;10451965;28;20064;-46
2024/02/01 13:50:00;;;;;;;7.53;2.15;;;21.80;40.30;;;;;;10449502;28;20048;-51
2024/02/01 13:55:02;;;;;;;5.78;1.85;;;21.90;40.30;;;;;;10460931;28;20055;-47
2024/02/01 14:00:14;;;;;;;6.30;1.83;;;21.90;40.30;;;;;;10460454;28;20049;-53
2024/02/01 14:05:19;;;;;;;7.00;2.17;;;22.00;39.70;;;;;;10454903;28;20066;-50
2024/02/01 14:10:21;;;;;;;5.80;2.40;;;21.90;39.70;;;;;;10460260;28;20040;-48
2024/02/01 14:15:22;;;;;;;6.22;2.13;;;22.00;39.60;;;;;;10464074;28;20040;-47
2024/02/01 14:20:25;;;;;;;6.53;2.20;;;22.10;39.60;;;;;;10460208;28;20536;-51
2024/02/01 14:25:27;;;;;;;5.75;2.05;;;22.00;39.70;;;;;;10448206;28;20047;-48
2024/02/01 14:30:32;;;;;;;9.25;2.58;;;22.10;39.90;;;;;;10456411;28;20049;-49
2024/02/01 14:35:35;;;;;;;10.60;2.53;;;21.90;40.50;;;;;;10468647;28;20052;-51
2024/02/01 14:40:36;;;;;;;5.07;1.90;;;21.90;40.60;;;;;;10459333;28;20162;-53
2024/02/01 14:45:40;;;;;;;7.45;2.20;;;21.90;40.80;;;;;;10454850;28;20048;-47
2024/02/01 14:50:43;;;;;;;5.72;2.28;;;21.90;40.90;;;;;;10459605;28;20053;-49
2024/02/01 14:55:45;;;;;;;6.97;2.10;;;22.00;40.90;;;;;;10456646;28;20037;-51
2024/02/01 15:00:49;;;;;;;6.30;2.25;;;22.10;40.90;;;;;;10452224;28;20127;-50
2024/02/01 15:05:52;;;;;;;7.05;2.30;;;22.10;41.50;;;;;;10444503;28;20426;-47
2024/02/01 15:10:53;;;;;;;5.68;1.77;;;22.10;40.80;;;;;;10464573;28;20041;-50
2024/02/01 15:15:55;;;;;;;7.20;2.33;;;22.00;40.80;;;;;;10464693;28;20557;-51
2024/02/01 15:20:58;;;;;;;5.47;1.70;;;22.10;40.80;;;;;;10457405;28;20075;-44
2024/02/01 15:26:01;;;;;;;4.05;1.60;;;22.10;40.90;;;;;;10460196;28;20074;-48
2024/02/01 15:31:03;;;;;;;8.18;2.20;;;22.10;40.90;;;;;;10467178;28;20060;-45
2024/02/01 15:36:07;;;;;;;5.80;1.70;;;22.10;40.90;;;;;;10470716;28;20052;-45
2024/02/01 15:41:08;;;;;;;3.85;1.70;;;22.10;40.80;;;;;;10450070;28;20131;-44
2024/02/01 15:46:11;;;;;;;5.07;1.90;;;22.30;40.70;;;;;;10456861;28;20498;-47
2024/02/01 15:51:14;;;;;;;4.38;1.80;;;22.20;40.70;;;;;;10471864;28;20052;-45
2024/02/01 15:56:16;;;;;;;4.40;1.60;;;22.30;40.60;;;;;;10455375;28;20485;-50
2024/02/01 16:01:18;;;;;;;8.20;2.00;;;22.20;40.60;;;;;;10458638;28;20058;-48
2024/02/01 16:06:22;;;;;;;8.07;2.25;;;22.30;40.60;;;;;;10460213;28;20045;-47
2024/02/01 16:11:25;;;;;;;5.75;1.92;;;22.70;39.70;;;;;;10465329;28;20049;-47
2024/02/01 16:16:30;;;;;;;7.30;2.15;;;22.90;39.50;;;;;;10458708;28;20076;-44
2024/02/01 16:21:34;;;;;;;7.50;2.10;;;23.00;39.50;;;;;;10446679;28;20083;-50
2024/02/01 16:26:36;;;;;;;6.40;2.08;;;22.90;39.70;;;;;;10463176;28;20560;-45
2024/02/01 16:31:37;;;;;;;7.35;2.08;;;22.90;39.80;;;;;;10468858;28;20103;-45
2024/02/01 16:36:52;;;;;;;6.30;1.98;;;22.90;39.90;;;;;;10461520;28;20055;-53
2024/02/01 16:41:55;;;;;;;6.03;1.50;;;22.80;39.90;;;;;;10460367;28;20532;-49
2024/02/01 16:46:57;;;;;;;4.80;1.80;;;22.90;39.80;;;;;;10458377;28;20056;-47
2024/02/01 16:52:00;;;;;;;6.95;1.73;;;22.90;39.80;;;;;;10472213;28;20099;-45
2024/02/01 16:57:04;;;;;;;6.00;2.20;;;22.90;39.80;;;;;;10443096;28;20411;-49
2024/02/01 17:02:08;;;;;;;6.25;1.60;;;22.80;40.00;;;;;;10456439;28;20051;-49
2024/02/01 17:07:20;;;;;;;8.98;2.20;;;22.80;40.10;;;;;;10457772;28;20049;-45
2024/02/01 17:12:21;;;;;;;9.55;1.65;;;23.00;39.80;;;;;;10463025;28;20048;-52
2024/02/01 17:17:24;;;;;;;9.38;2.25;;;22.80;40.20;;;;;;10457469;28;20044;-46
2024/02/01 17:22:27;;;;;;;7.70;1.52;;;22.90;40.70;;;;;;10468639;28;20421;-45
2024/02/01 17:27:30;;;;;;;5.18;1.98;;;22.70;41.10;;;;;;10450458;28;20114;-45
2024/02/01 17:32:34;;;;;;;4.43;1.60;;;22.80;41.40;;;;;;10457262;28;20039;-44
2024/02/01 17:37:38;;;;;;;7.72;2.00;;;22.80;41.30;;;;;;10454115;28;20045;-45
2024/02/01 17:42:41;;;;;;;10.70;2.38;;;22.90;40.50;;;;;;10453264;28;20048;-49
2024/02/01 17:47:43;;;;;;;16.17;2.60;;;22.90;41.20;;;;;;10450152;28;20571;-48
2024/02/01 17:52:51;;;;;;;14.77;2.25;;;22.80;42.70;;;;;;10456447;28;20140;-48
2024/02/01 17:57:55;;;;;;;9.55;2.38;;;22.80;43.00;;;;;;10454847;28;20514;-48
2024/02/01 18:02:56;;;;;;;6.15;2.50;;;22.80;43.90;;;;;;10446697;28;20041;-45
2024/02/01 18:07:59;;;;;;;12.85;2.05;;;22.90;44.50;;;;;;10452120;28;20136;-49
2024/02/01 18:13:01;;;;;;;12.38;2.50;;;22.90;44.80;;;;;;10448129;28;20495;-46
2024/02/01 18:18:03;;;;;;;7.75;2.10;;;23.00;45.20;;;;;;10452506;28;20461;-48
2024/02/01 18:23:06;;;;;;;10.18;1.92;;;23.10;45.10;;;;;;10458956;28;20045;-49
2024/02/01 18:28:12;;;;;;;11.93;2.08;;;23.10;45.10;;;;;;10449871;28;20055;-48
2024/02/01 18:33:14;;;;;;;14.60;2.58;;;23.10;45.70;;;;;;10452151;28;20418;-48
2024/02/01 18:38:44;;;;;;;7.38;2.55;;;23.20;46.10;;;;;;10449932;28;20417;-46
2024/02/01 18:43:46;;;;;;;9.48;2.88;;;23.30;44.00;;;;;;10453269;28;20146;-47
2024/02/01 18:48:48;;;;;;;8.52;2.83;;;23.40;42.40;;;;;;10457022;28;20053;-47
2024/02/01 18:53:54;;;;;;;6.88;2.17;;;23.50;41.70;;;;;;10449882;28;20076;-51
2024/02/01 18:58:55;;;;;;;8.65;2.40;;;23.50;42.20;;;;;;10456217;28;20048;-48
2024/02/01 19:04:10;;;;;;;7.07;2.55;;;23.40;42.80;;;;;;10469698;28;20724;-45
2024/02/01 19:09:33;;;;;;;16.45;3.67;;;23.40;43.10;;;;;;10460825;28;20523;-47
2024/02/01 19:14:36;;;;;;;16.85;3.42;;;23.60;42.80;;;;;;10460373;28;20095;-47
2024/02/01 19:19:37;;;;;;;14.70;3.50;;;23.60;42.00;;;;;;10459149;28;20045;-47
2024/02/01 19:24:40;;;;;;;10.88;3.25;;;23.70;42.10;;;;;;10459968;28;20049;-46
2024/02/01 19:29:42;;;;;;;20.85;2.97;;;23.80;41.60;;;;;;10457799;28;20045;-46
2024/02/01 19:34:43;;;;;;;23.60;3.22;;;23.90;41.70;;;;;;10452535;28;20045;-48
2024/02/01 19:39:46;;;;;;;22.63;3.22;;;23.90;41.70;;;;;;10457325;28;20053;-45
2024/02/01 19:44:48;;;;;;;17.27;3.22;;;23.90;41.80;;;;;;10464381;28;20502;-47
2024/02/01 19:49:50;;;;;;;11.25;2.85;;;23.80;41.80;;;;;;10465746;28;20048;-46
2024/02/01 19:54:52;;;;;;;17.48;2.80;;;23.80;42.20;;;;;;10464659;28;20126;-45
2024/02/01 19:59:54;;;;;;;15.05;2.90;;;23.70;42.40;;;;;;10454751;28;20048;-50
2024/02/01 20:04:56;;;;;;;15.18;2.78;;;23.60;42.60;;;;;;10457871;28;20048;-43
2024/02/01 20:10:01;;;;;;;16.85;3.58;;;23.50;42.80;;;;;;10453114;28;20045;-42
2024/02/01 20:15:03;;;;;;;22.95;3.53;;;23.50;43.20;;;;;;10459114;28;20135;-52
2024/02/01 20:20:07;;;;;;;14.80;3.58;;;22.90;40.70;;;;;;10461571;28;20081;-49
2024/02/01 20:25:16;;;;;;;14.63;3.85;;;22.80;40.70;;;;;;10458254;28;20103;-49
2024/02/01 20:30:20;;;;;;;19.52;4.22;;;22.60;39.90;;;;;;10455491;28;20411;-55
2024/02/01 20:35:22;;;;;;;18.00;4.22;;;22.30;39.50;;;;;;10449309;28;20122;-52
2024/02/01 20:40:33;;;;;;;20.83;3.75;;;22.00;38.40;;;;;;10458464;28;20048;-50
2024/02/01 20:45:36;;;;;;;20.13;3.65;;;22.20;39.20;;;;;;10457096;28;20151;-49
2024/02/01 20:50:40;;;;;;;16.02;3.63;;;22.00;40.00;;;;;;10454234;28;20493;-51
2024/02/01 20:55:45;;;;;;;13.30;3.42;;;22.30;39.70;;;;;;10456495;28;20102;-54
2024/02/01 21:00:49;;;;;;;12.32;3.63;;;22.40;40.20;;;;;;10457264;28;20057;-52
2024/02/01 21:05:52;;;;;;;13.48;3.33;;;22.40;40.30;;;;;;10455387;28;20072;-49
2024/02/01 21:10:55;;;;;;;14.10;3.47;;;22.40;40.60;;;;;;10457677;28;20049;-48
2024/02/01 21:15:57;;;;;;;13.35;2.95;;;22.30;40.80;;;;;;10446770;28;20106;-52
2024/02/01 21:21:02;;;;;;;11.88;3.20;;;22.20;40.90;;;;;;10449591;28;20060;-51
2024/02/01 21:26:30;;;;;;;11.10;3.13;;;22.20;40.90;;;;;;10453036;28;20045;-51
2024/02/01 21:32:05;;;;;;;15.68;3.22;;;22.20;40.80;;;;;;10459694;28;20083;-52
2024/02/01 21:37:10;;;;;;;12.55;3.05;;;22.20;40.50;;;;;;10330081;28;20046;-50
2024/02/01 21:42:47;;;;;;;10.30;3.10;;;22.20;40.90;;;;;;10428492;28;20139;-49
2024/02/01 21:47:51;;;;;;;10.52;3.47;;;22.20;40.70;;;;;;10416426;28;20514;-51
2024/02/01 21:52:54;;;;;;;8.02;2.78;;;22.00;41.00;;;;;;10458944;28;20049;-51
2024/02/01 21:57:56;;;;;;;8.38;2.80;;;21.90;41.30;;;;;;10447700;28;20044;-49
2024/02/01 22:03:00;;;;;;;9.68;3.00;;;21.90;41.40;;;;;;10452480;28;20053;-50
2024/02/01 22:08:02;;;;;;;7.93;2.80;;;21.90;41.60;;;;;;10458527;28;20045;-51
2024/02/01 22:13:04;;;;;;;6.45;2.17;;;21.80;41.60;;;;;;10462499;28;20044;-53
2024/02/01 22:18:07;;;;;;;8.27;2.88;;;21.60;42.00;;;;;;10460434;28;20325;-50
2024/02/01 22:23:09;;;;;;;8.13;2.88;;;21.70;42.00;;;;;;10441825;28;20045;-54
2024/02/01 22:28:10;;;;;;;8.45;2.60;;;21.80;41.90;;;;;;10453462;28;20045;-49
2024/02/01 22:33:13;;;;;;;7.18;2.78;;;21.60;42.00;;;;;;10454413;28;20045;-50
2024/02/01 22:38:15;;;;;;;7.97;2.65;;;21.80;41.70;;;;;;10452350;28;20445;-48
2024/02/01 22:43:16;;;;;;;4.53;1.95;;;21.90;41.50;;;;;;10454913;28;20116;-52
2024/02/01 22:48:19;;;;;;;6.20;2.40;;;21.80;41.50;;;;;;10456528;28;20041;-52
2024/02/01 22:53:21;;;;;;;7.30;2.65;;;21.80;41.60;;;;;;10460066;28;20070;-52
2024/02/01 22:58:23;;;;;;;8.38;2.33;;;21.90;41.40;;;;;;10464635;28;20060;-46
2024/02/01 23:03:26;;;;;;;8.13;2.60;;;21.80;41.50;;;;;;10450782;28;20128;-47
2024/02/01 23:08:28;;;;;;;6.57;2.45;;;21.90;41.50;;;;;;10452091;28;20498;-46
2024/02/01 23:13:30;;;;;;;6.13;2.30;;;21.90;41.70;;;;;;10447316;28;20041;-48
2024/02/01 23:18:33;;;;;;;6.22;2.63;;;21.90;41.50;;;;;;10452823;28;20132;-45
2024/02/01 23:23:35;;;;;;;6.22;2.65;;;21.80;41.60;;;;;;10455269;28;20538;-47
2024/02/01 23:28:36;;;;;;;5.45;2.15;;;21.90;41.70;;;;;;10459220;28;20041;-46
2024/02/01 23:33:44;;;;;;;8.43;2.20;;;22.00;41.30;;;;;;10460736;28;20494;-47
2024/02/01 23:38:46;;;;;;;6.93;2.40;;;22.00;41.20;;;;;;10452059;28;20049;-48
2024/02/01 23:43:47;;;;;;;4.78;2.10;;;22.00;41.30;;;;;;10451252;28;20053;-44
2024/02/01 23:48:50;;;;;;;4.55;1.92;;;21.90;41.40;;;;;;10461932;28;20052;-47
2024/02/01 23:53:52;;;;;;;5.35;2.22;;;21.90;41.30;;;;;;10457431;28;20637;-49
2024/02/01 23:58:53;;;;;;;4.60;2.10;;;22.00;41.30;;;;;;10464069;28;20059;-49
